sensor_id;sensor_type;location;lat;lon;timestamp;P1;durP1;ratioP1;P2;durP2;ratioP2
45764;SDS011;31474;45.332;10.230;2023-04-08T00:00:22;21.50;;;14.30;;
45764;SDS011;31474;45.332;10.230;2023-04-08T00:02:48;20.17;;;13.15;;
45764;SDS011;31474;45.332;10.230;2023-04-08T00:05:14;24.35;;;15.07;;
45764;SDS011;31474;45.332;10.230;2023-04-08T00:07:40;18.40;;;12.30;;
45764;SDS011;31474;45.332;10.230;2023-04-08T00:10:06;17.17;;;12.23;;
45764;SDS011;31474;45.332;10.230;2023-04-08T00:12:32;20.08;;;13.32;;
45764;SDS011;31474;45.332;10.230;2023-04-08T00:14:58;20.40;;;13.90;;
45764;SDS011;31474;45.332;10.230;2023-04-08T00:17:23;21.70;;;11.90;;
45764;SDS011;31474;45.332;10.230;2023-04-08T00:19:49;19.23;;;11.82;;
45764;SDS011;31474;45.332;10.230;2023-04-08T00:22:15;18.70;;;12.32;;
45764;SDS011;31474;45.332;10.230;2023-04-08T00:24:41;21.38;;;13.60;;
45764;SDS011;31474;45.332;10.230;2023-04-08T00:27:07;22.27;;;13.32;;
45764;SDS011;31474;45.332;10.230;2023-04-08T00:29:33;22.75;;;14.25;;
45764;SDS011;31474;45.332;10.230;2023-04-08T00:31:58;23.08;;;13.57;;
45764;SDS011;31474;45.332;10.230;2023-04-08T00:34:24;19.35;;;13.75;;
45764;SDS011;31474;45.332;10.230;2023-04-08T00:36:51;22.98;;;13.98;;
45764;SDS011;31474;45.332;10.230;2023-04-08T00:39:16;25.25;;;13.43;;
45764;SDS011;31474;45.332;10.230;2023-04-08T00:41:42;29.80;;;13.65;;
45764;SDS011;31474;45.332;10.230;2023-04-08T00:44:07;19.33;;;13.27;;
45764;SDS011;31474;45.332;10.230;2023-04-08T00:46:34;19.30;;;12.27;;
45764;SDS011;31474;45.332;10.230;2023-04-08T00:49:02;18.55;;;13.48;;
45764;SDS011;31474;45.332;10.230;2023-04-08T00:51:28;20.05;;;13.43;;
45764;SDS011;31474;45.332;10.230;2023-04-08T00:53:55;24.20;;;14.82;;
45764;SDS011;31474;45.332;10.230;2023-04-08T00:56:21;23.17;;;14.18;;
45764;SDS011;31474;45.332;10.230;2023-04-08T00:58:48;23.17;;;14.05;;
45764;SDS011;31474;45.332;10.230;2023-04-08T01:01:23;20.08;;;12.50;;
45764;SDS011;31474;45.332;10.230;2023-04-08T01:09:23;24.70;;;13.57;;
45764;SDS011;31474;45.332;10.230;2023-04-08T01:11:51;22.73;;;13.27;;
45764;SDS011;31474;45.332;10.230;2023-04-08T01:14:22;22.45;;;14.55;;
45764;SDS011;31474;45.332;10.230;2023-04-08T01:16:52;23.42;;;14.13;;
45764;SDS011;31474;45.332;10.230;2023-04-08T01:19:26;19.60;;;12.82;;
45764;SDS011;31474;45.332;10.230;2023-04-08T01:21:55;23.90;;;13.65;;
45764;SDS011;31474;45.332;10.230;2023-04-08T01:24:48;24.52;;;13.45;;
45764;SDS011;31474;45.332;10.230;2023-04-08T01:27:15;24.00;;;14.27;;
45764;SDS011;31474;45.332;10.230;2023-04-08T01:29:41;23.45;;;13.27;;
45764;SDS011;31474;45.332;10.230;2023-04-08T01:32:08;25.63;;;13.40;;
45764;SDS011;31474;45.332;10.230;2023-04-08T01:34:35;24.58;;;13.25;;
45764;SDS011;31474;45.332;10.230;2023-04-08T01:37:04;23.17;;;13.90;;
45764;SDS011;31474;45.332;10.230;2023-04-08T01:39:31;20.58;;;14.68;;
45764;SDS011;31474;45.332;10.230;2023-04-08T01:41:58;21.42;;;13.50;;
45764;SDS011;31474;45.332;10.230;2023-04-08T01:44:26;24.17;;;14.20;;
45764;SDS011;31474;45.332;10.230;2023-04-08T01:46:52;19.55;;;13.65;;
45764;SDS011;31474;45.332;10.230;2023-04-08T01:49:19;23.95;;;13.50;;
45764;SDS011;31474;45.332;10.230;2023-04-08T01:51:46;23.52;;;13.68;;
45764;SDS011;31474;45.332;10.230;2023-04-08T01:54:13;26.40;;;14.55;;
45764;SDS011;31474;45.332;10.230;2023-04-08T01:56:40;23.60;;;14.68;;
45764;SDS011;31474;45.332;10.230;2023-04-08T01:59:09;25.00;;;15.45;;
45764;SDS011;31474;45.332;10.230;2023-04-08T02:01:38;23.80;;;14.65;;
45764;SDS011;31474;45.332;10.230;2023-04-08T02:04:05;27.02;;;15.23;;
45764;SDS011;31474;45.332;10.230;2023-04-08T02:06:30;24.38;;;15.07;;
45764;SDS011;31474;45.332;10.230;2023-04-08T02:08:58;22.63;;;15.15;;
45764;SDS011;31474;45.332;10.230;2023-04-08T02:11:23;23.20;;;14.70;;
45764;SDS011;31474;45.332;10.230;2023-04-08T02:13:50;22.58;;;15.02;;
45764;SDS011;31474;45.332;10.230;2023-04-08T02:19:19;20.75;;;14.45;;
45764;SDS011;31474;45.332;10.230;2023-04-08T02:21:54;26.15;;;13.90;;
45764;SDS011;31474;45.332;10.230;2023-04-08T02:24:23;24.95;;;16.20;;
45764;SDS011;31474;45.332;10.230;2023-04-08T02:26:51;25.25;;;16.52;;
45764;SDS011;31474;45.332;10.230;2023-04-08T02:29:19;22.17;;;13.90;;
45764;SDS011;31474;45.332;10.230;2023-04-08T02:31:46;23.83;;;14.75;;
45764;SDS011;31474;45.332;10.230;2023-04-08T02:34:14;22.77;;;14.27;;
45764;SDS011;31474;45.332;10.230;2023-04-08T02:36:41;24.17;;;14.98;;
45764;SDS011;31474;45.332;10.230;2023-04-08T02:39:10;23.25;;;14.93;;
45764;SDS011;31474;45.332;10.230;2023-04-08T02:41:35;25.88;;;15.20;;
45764;SDS011;31474;45.332;10.230;2023-04-08T02:44:01;23.88;;;15.75;;
45764;SDS011;31474;45.332;10.230;2023-04-08T02:46:26;26.48;;;15.38;;
45764;SDS011;31474;45.332;10.230;2023-04-08T02:48:52;22.80;;;15.27;;
45764;SDS011;31474;45.332;10.230;2023-04-08T02:51:18;21.88;;;14.23;;
45764;SDS011;31474;45.332;10.230;2023-04-08T02:53:43;20.92;;;14.32;;
45764;SDS011;31474;45.332;10.230;2023-04-08T02:56:09;26.08;;;15.25;;
45764;SDS011;31474;45.332;10.230;2023-04-08T02:58:35;26.25;;;15.15;;
45764;SDS011;31474;45.332;10.230;2023-04-08T03:01:01;23.45;;;15.60;;
45764;SDS011;31474;45.332;10.230;2023-04-08T03:03:27;24.50;;;15.50;;
45764;SDS011;31474;45.332;10.230;2023-04-08T03:05:54;25.45;;;15.57;;
45764;SDS011;31474;45.332;10.230;2023-04-08T03:08:20;23.20;;;15.52;;
45764;SDS011;31474;45.332;10.230;2023-04-08T03:10:46;25.83;;;15.32;;
45764;SDS011;31474;45.332;10.230;2023-04-08T03:13:13;24.58;;;16.23;;
45764;SDS011;31474;45.332;10.230;2023-04-08T03:15:39;23.58;;;14.68;;
45764;SDS011;31474;45.332;10.230;2023-04-08T03:18:05;21.17;;;14.40;;
45764;SDS011;31474;45.332;10.230;2023-04-08T03:20:30;26.90;;;15.95;;
45764;SDS011;31474;45.332;10.230;2023-04-08T03:22:56;23.25;;;16.20;;
45764;SDS011;31474;45.332;10.230;2023-04-08T03:25:22;29.15;;;16.33;;
45764;SDS011;31474;45.332;10.230;2023-04-08T03:27:47;25.10;;;15.25;;
45764;SDS011;31474;45.332;10.230;2023-04-08T03:30:13;25.95;;;16.38;;
45764;SDS011;31474;45.332;10.230;2023-04-08T03:32:39;27.63;;;14.65;;
45764;SDS011;31474;45.332;10.230;2023-04-08T03:35:05;25.67;;;16.67;;
45764;SDS011;31474;45.332;10.230;2023-04-08T03:37:31;24.38;;;15.98;;
45764;SDS011;31474;45.332;10.230;2023-04-08T03:39:57;22.95;;;15.45;;
45764;SDS011;31474;45.332;10.230;2023-04-08T03:42:22;25.40;;;16.70;;
45764;SDS011;31474;45.332;10.230;2023-04-08T03:44:48;25.40;;;14.70;;
45764;SDS011;31474;45.332;10.230;2023-04-08T03:47:13;27.33;;;16.42;;
45764;SDS011;31474;45.332;10.230;2023-04-08T03:49:39;23.48;;;14.80;;
45764;SDS011;31474;45.332;10.230;2023-04-08T03:52:05;24.75;;;16.65;;
45764;SDS011;31474;45.332;10.230;2023-04-08T03:54:31;25.17;;;15.73;;
45764;SDS011;31474;45.332;10.230;2023-04-08T03:56:57;24.38;;;15.35;;
45764;SDS011;31474;45.332;10.230;2023-04-08T03:59:22;25.05;;;15.63;;
45764;SDS011;31474;45.332;10.230;2023-04-08T04:01:48;23.48;;;15.43;;
45764;SDS011;31474;45.332;10.230;2023-04-08T04:04:15;27.45;;;14.52;;
45764;SDS011;31474;45.332;10.230;2023-04-08T04:06:41;26.48;;;15.60;;
45764;SDS011;31474;45.332;10.230;2023-04-08T04:09:06;26.27;;;14.13;;
45764;SDS011;31474;45.332;10.230;2023-04-08T04:11:35;27.73;;;15.07;;
45764;SDS011;31474;45.332;10.230;2023-04-08T04:14:00;26.77;;;15.02;;
45764;SDS011;31474;45.332;10.230;2023-04-08T04:16:26;27.10;;;17.25;;
45764;SDS011;31474;45.332;10.230;2023-04-08T04:18:52;26.27;;;14.65;;
45764;SDS011;31474;45.332;10.230;2023-04-08T04:21:17;24.50;;;14.07;;
45764;SDS011;31474;45.332;10.230;2023-04-08T04:23:43;26.33;;;15.63;;
45764;SDS011;31474;45.332;10.230;2023-04-08T04:26:09;28.92;;;15.75;;
45764;SDS011;31474;45.332;10.230;2023-04-08T04:28:36;25.27;;;15.82;;
45764;SDS011;31474;45.332;10.230;2023-04-08T04:31:02;26.70;;;14.75;;
45764;SDS011;31474;45.332;10.230;2023-04-08T04:33:28;20.55;;;13.48;;
45764;SDS011;31474;45.332;10.230;2023-04-08T04:35:54;24.58;;;14.27;;
45764;SDS011;31474;45.332;10.230;2023-04-08T04:38:20;21.88;;;14.63;;
45764;SDS011;31474;45.332;10.230;2023-04-08T04:40:45;28.67;;;15.30;;
45764;SDS011;31474;45.332;10.230;2023-04-08T04:43:11;25.20;;;15.90;;
45764;SDS011;31474;45.332;10.230;2023-04-08T04:45:37;22.52;;;13.40;;
45764;SDS011;31474;45.332;10.230;2023-04-08T04:48:02;26.33;;;15.95;;
45764;SDS011;31474;45.332;10.230;2023-04-08T04:50:28;25.55;;;13.85;;
45764;SDS011;31474;45.332;10.230;2023-04-08T04:52:54;26.55;;;16.05;;
45764;SDS011;31474;45.332;10.230;2023-04-08T04:55:19;29.10;;;15.68;;
45764;SDS011;31474;45.332;10.230;2023-04-08T04:57:46;22.30;;;14.82;;
45764;SDS011;31474;45.332;10.230;2023-04-08T05:00:12;28.38;;;15.63;;
45764;SDS011;31474;45.332;10.230;2023-04-08T05:02:38;21.77;;;14.55;;
45764;SDS011;31474;45.332;10.230;2023-04-08T05:05:04;27.13;;;15.50;;
45764;SDS011;31474;45.332;10.230;2023-04-08T05:07:30;24.40;;;16.48;;
45764;SDS011;31474;45.332;10.230;2023-04-08T05:09:59;28.42;;;15.32;;
45764;SDS011;31474;45.332;10.230;2023-04-08T05:12:25;28.65;;;15.75;;
45764;SDS011;31474;45.332;10.230;2023-04-08T05:14:51;26.63;;;15.25;;
45764;SDS011;31474;45.332;10.230;2023-04-08T05:17:16;29.88;;;17.52;;
45764;SDS011;31474;45.332;10.230;2023-04-08T05:19:42;26.08;;;15.20;;
45764;SDS011;31474;45.332;10.230;2023-04-08T05:22:08;26.27;;;14.82;;
45764;SDS011;31474;45.332;10.230;2023-04-08T05:24:34;25.77;;;15.43;;
45764;SDS011;31474;45.332;10.230;2023-04-08T05:27:00;24.02;;;14.35;;
45764;SDS011;31474;45.332;10.230;2023-04-08T05:29:26;29.27;;;15.45;;
45764;SDS011;31474;45.332;10.230;2023-04-08T05:31:51;28.67;;;16.40;;
45764;SDS011;31474;45.332;10.230;2023-04-08T05:34:17;26.70;;;15.73;;
45764;SDS011;31474;45.332;10.230;2023-04-08T05:36:47;22.98;;;15.18;;
45764;SDS011;31474;45.332;10.230;2023-04-08T05:39:16;23.13;;;15.57;;
45764;SDS011;31474;45.332;10.230;2023-04-08T05:41:42;24.80;;;14.95;;
45764;SDS011;31474;45.332;10.230;2023-04-08T05:44:08;28.70;;;15.38;;
45764;SDS011;31474;45.332;10.230;2023-04-08T05:46:35;28.02;;;15.88;;
45764;SDS011;31474;45.332;10.230;2023-04-08T05:49:01;22.67;;;15.05;;
45764;SDS011;31474;45.332;10.230;2023-04-08T05:51:27;27.08;;;16.02;;
45764;SDS011;31474;45.332;10.230;2023-04-08T05:53:52;24.70;;;16.10;;
45764;SDS011;31474;45.332;10.230;2023-04-08T05:56:18;27.42;;;15.77;;
45764;SDS011;31474;45.332;10.230;2023-04-08T05:58:43;22.30;;;14.98;;
45764;SDS011;31474;45.332;10.230;2023-04-08T06:01:09;27.40;;;16.58;;
45764;SDS011;31474;45.332;10.230;2023-04-08T06:03:35;24.65;;;16.33;;
45764;SDS011;31474;45.332;10.230;2023-04-08T06:06:00;25.75;;;15.55;;
45764;SDS011;31474;45.332;10.230;2023-04-08T06:08:26;24.65;;;15.57;;
45764;SDS011;31474;45.332;10.230;2023-04-08T06:10:52;29.52;;;17.00;;
45764;SDS011;31474;45.332;10.230;2023-04-08T06:13:17;23.45;;;16.23;;
45764;SDS011;31474;45.332;10.230;2023-04-08T06:15:45;29.08;;;16.65;;
45764;SDS011;31474;45.332;10.230;2023-04-08T06:18:10;26.63;;;16.55;;
45764;SDS011;31474;45.332;10.230;2023-04-08T06:20:36;21.88;;;16.02;;
45764;SDS011;31474;45.332;10.230;2023-04-08T06:23:01;23.48;;;15.95;;
45764;SDS011;31474;45.332;10.230;2023-04-08T06:25:27;25.55;;;16.73;;
45764;SDS011;31474;45.332;10.230;2023-04-08T06:27:53;24.58;;;15.93;;
45764;SDS011;31474;45.332;10.230;2023-04-08T06:30:18;24.17;;;16.60;;
45764;SDS011;31474;45.332;10.230;2023-04-08T06:32:44;28.42;;;17.45;;
45764;SDS011;31474;45.332;10.230;2023-04-08T06:35:11;30.10;;;16.33;;
45764;SDS011;31474;45.332;10.230;2023-04-08T06:37:37;24.95;;;17.90;;
45764;SDS011;31474;45.332;10.230;2023-04-08T06:40:06;27.85;;;17.70;;
45764;SDS011;31474;45.332;10.230;2023-04-08T06:42:32;28.10;;;17.05;;
45764;SDS011;31474;45.332;10.230;2023-04-08T06:44:57;28.10;;;19.45;;
45764;SDS011;31474;45.332;10.230;2023-04-08T06:47:23;27.35;;;18.75;;
45764;SDS011;31474;45.332;10.230;2023-04-08T06:49:49;29.67;;;17.80;;
45764;SDS011;31474;45.332;10.230;2023-04-08T06:52:15;32.70;;;18.38;;
45764;SDS011;31474;45.332;10.230;2023-04-08T06:54:41;31.67;;;18.98;;
45764;SDS011;31474;45.332;10.230;2023-04-08T06:57:06;31.20;;;19.40;;
45764;SDS011;31474;45.332;10.230;2023-04-08T06:59:32;27.80;;;17.75;;
45764;SDS011;31474;45.332;10.230;2023-04-08T07:01:58;30.73;;;19.33;;
45764;SDS011;31474;45.332;10.230;2023-04-08T07:04:24;26.92;;;18.13;;
45764;SDS011;31474;45.332;10.230;2023-04-08T07:06:50;29.38;;;19.42;;
45764;SDS011;31474;45.332;10.230;2023-04-08T07:09:16;30.25;;;20.55;;
45764;SDS011;31474;45.332;10.230;2023-04-08T07:11:42;30.00;;;19.00;;
45764;SDS011;31474;45.332;10.230;2023-04-08T07:14:08;31.40;;;18.40;;
45764;SDS011;31474;45.332;10.230;2023-04-08T07:16:33;28.58;;;19.30;;
45764;SDS011;31474;45.332;10.230;2023-04-08T07:18:59;30.80;;;19.38;;
45764;SDS011;31474;45.332;10.230;2023-04-08T07:21:25;27.85;;;20.05;;
45764;SDS011;31474;45.332;10.230;2023-04-08T07:23:51;28.27;;;19.70;;
45764;SDS011;31474;45.332;10.230;2023-04-08T07:26:17;29.17;;;20.25;;
45764;SDS011;31474;45.332;10.230;2023-04-08T07:28:43;27.15;;;20.27;;
45764;SDS011;31474;45.332;10.230;2023-04-08T07:31:09;27.40;;;19.52;;
45764;SDS011;31474;45.332;10.230;2023-04-08T07:33:39;28.48;;;19.90;;
45764;SDS011;31474;45.332;10.230;2023-04-08T07:36:05;27.50;;;19.35;;
45764;SDS011;31474;45.332;10.230;2023-04-08T07:38:32;30.88;;;19.17;;
45764;SDS011;31474;45.332;10.230;2023-04-08T07:40:58;28.75;;;20.02;;
45764;SDS011;31474;45.332;10.230;2023-04-08T07:43:24;31.05;;;20.23;;
45764;SDS011;31474;45.332;10.230;2023-04-08T07:45:49;30.27;;;21.13;;
45764;SDS011;31474;45.332;10.230;2023-04-08T07:48:15;27.77;;;18.27;;
45764;SDS011;31474;45.332;10.230;2023-04-08T07:50:41;30.50;;;19.67;;
45764;SDS011;31474;45.332;10.230;2023-04-08T07:53:06;32.30;;;19.85;;
45764;SDS011;31474;45.332;10.230;2023-04-08T07:55:32;30.98;;;19.42;;
45764;SDS011;31474;45.332;10.230;2023-04-08T07:57:59;31.67;;;19.08;;
45764;SDS011;31474;45.332;10.230;2023-04-08T08:00:25;29.25;;;20.17;;
45764;SDS011;31474;45.332;10.230;2023-04-08T08:02:51;29.27;;;19.50;;
45764;SDS011;31474;45.332;10.230;2023-04-08T08:05:17;25.05;;;18.58;;
45764;SDS011;31474;45.332;10.230;2023-04-08T08:07:43;29.38;;;19.15;;
45764;SDS011;31474;45.332;10.230;2023-04-08T08:10:08;28.15;;;19.75;;
45764;SDS011;31474;45.332;10.230;2023-04-08T08:12:35;28.20;;;19.83;;
45764;SDS011;31474;45.332;10.230;2023-04-08T08:15:01;29.52;;;19.08;;
45764;SDS011;31474;45.332;10.230;2023-04-08T08:17:27;29.17;;;18.67;;
45764;SDS011;31474;45.332;10.230;2023-04-08T08:19:55;31.10;;;19.90;;
45764;SDS011;31474;45.332;10.230;2023-04-08T08:22:20;30.30;;;18.60;;
45764;SDS011;31474;45.332;10.230;2023-04-08T08:24:46;27.60;;;19.30;;
45764;SDS011;31474;45.332;10.230;2023-04-08T08:27:12;26.83;;;19.02;;
45764;SDS011;31474;45.332;10.230;2023-04-08T08:29:37;25.58;;;18.75;;
45764;SDS011;31474;45.332;10.230;2023-04-08T08:32:03;28.45;;;18.67;;
45764;SDS011;31474;45.332;10.230;2023-04-08T08:34:30;25.10;;;17.48;;
45764;SDS011;31474;45.332;10.230;2023-04-08T08:36:56;29.75;;;19.10;;
45764;SDS011;31474;45.332;10.230;2023-04-08T08:39:22;28.40;;;19.33;;
45764;SDS011;31474;45.332;10.230;2023-04-08T08:41:47;27.60;;;18.75;;
45764;SDS011;31474;45.332;10.230;2023-04-08T08:44:13;30.70;;;18.33;;
45764;SDS011;31474;45.332;10.230;2023-04-08T08:46:42;25.58;;;18.40;;
45764;SDS011;31474;45.332;10.230;2023-04-08T08:49:09;30.20;;;18.70;;
45764;SDS011;31474;45.332;10.230;2023-04-08T08:51:35;29.58;;;17.20;;
45764;SDS011;31474;45.332;10.230;2023-04-08T08:54:03;26.95;;;18.83;;
45764;SDS011;31474;45.332;10.230;2023-04-08T08:56:28;29.50;;;17.88;;
45764;SDS011;31474;45.332;10.230;2023-04-08T08:58:54;26.25;;;17.33;;
45764;SDS011;31474;45.332;10.230;2023-04-08T09:01:30;29.08;;;18.33;;
45764;SDS011;31474;45.332;10.230;2023-04-08T09:04:05;26.85;;;18.50;;
45764;SDS011;31474;45.332;10.230;2023-04-08T09:06:35;26.23;;;16.60;;
45764;SDS011;31474;45.332;10.230;2023-04-08T09:09:01;32.22;;;17.65;;
45764;SDS011;31474;45.332;10.230;2023-04-08T09:11:30;22.38;;;15.40;;
45764;SDS011;31474;45.332;10.230;2023-04-08T09:13:56;22.77;;;14.57;;
45764;SDS011;31474;45.332;10.230;2023-04-08T09:16:22;23.95;;;13.85;;
45764;SDS011;31474;45.332;10.230;2023-04-08T09:18:47;25.92;;;15.68;;
45764;SDS011;31474;45.332;10.230;2023-04-08T09:21:14;26.30;;;14.63;;
45764;SDS011;31474;45.332;10.230;2023-04-08T09:23:47;23.02;;;14.38;;
45764;SDS011;31474;45.332;10.230;2023-04-08T09:26:21;25.52;;;15.07;;
45764;SDS011;31474;45.332;10.230;2023-04-08T09:31:26;25.15;;;16.05;;
45764;SDS011;31474;45.332;10.230;2023-04-08T09:33:57;23.80;;;13.73;;
45764;SDS011;31474;45.332;10.230;2023-04-08T09:36:24;23.67;;;15.95;;
45764;SDS011;31474;45.332;10.230;2023-04-08T09:38:54;25.88;;;16.17;;
45764;SDS011;31474;45.332;10.230;2023-04-08T09:41:20;24.92;;;16.40;;
45764;SDS011;31474;45.332;10.230;2023-04-08T09:43:49;25.15;;;16.77;;
45764;SDS011;31474;45.332;10.230;2023-04-08T09:46:17;26.70;;;16.92;;
45764;SDS011;31474;45.332;10.230;2023-04-08T09:49:04;26.45;;;15.93;;
45764;SDS011;31474;45.332;10.230;2023-04-08T09:51:43;31.88;;;16.67;;
45764;SDS011;31474;45.332;10.230;2023-04-08T09:54:16;28.20;;;16.17;;
45764;SDS011;31474;45.332;10.230;2023-04-08T09:56:50;24.08;;;16.52;;
45764;SDS011;31474;45.332;10.230;2023-04-08T09:59:26;29.02;;;16.40;;
45764;SDS011;31474;45.332;10.230;2023-04-08T10:01:57;26.33;;;15.67;;
45764;SDS011;31474;45.332;10.230;2023-04-08T10:04:25;25.20;;;15.57;;
45764;SDS011;31474;45.332;10.230;2023-04-08T10:06:53;26.42;;;17.25;;
45764;SDS011;31474;45.332;10.230;2023-04-08T10:09:22;32.15;;;18.02;;
45764;SDS011;31474;45.332;10.230;2023-04-08T10:11:48;28.88;;;16.90;;
45764;SDS011;31474;45.332;10.230;2023-04-08T10:14:15;27.08;;;16.58;;
45764;SDS011;31474;45.332;10.230;2023-04-08T10:16:40;29.10;;;17.50;;
45764;SDS011;31474;45.332;10.230;2023-04-08T10:19:52;31.90;;;17.83;;
45764;SDS011;31474;45.332;10.230;2023-04-08T10:22:03;34.13;;;17.00;;
45764;SDS011;31474;45.332;10.230;2023-04-08T10:27:40;24.48;;;15.27;;
45764;SDS011;31474;45.332;10.230;2023-04-08T10:32:54;23.67;;;16.48;;
45764;SDS011;31474;45.332;10.230;2023-04-08T10:35:30;24.98;;;15.88;;
45764;SDS011;31474;45.332;10.230;2023-04-08T10:37:58;26.65;;;16.65;;
45764;SDS011;31474;45.332;10.230;2023-04-08T10:40:25;25.67;;;16.02;;
45764;SDS011;31474;45.332;10.230;2023-04-08T10:42:54;26.23;;;15.38;;
45764;SDS011;31474;45.332;10.230;2023-04-08T10:45:20;28.50;;;15.68;;
45764;SDS011;31474;45.332;10.230;2023-04-08T10:47:46;30.13;;;16.42;;
45764;SDS011;31474;45.332;10.230;2023-04-08T10:50:12;22.50;;;15.70;;
45764;SDS011;31474;45.332;10.230;2023-04-08T10:52:47;26.33;;;15.15;;
45764;SDS011;31474;45.332;10.230;2023-04-08T10:55:24;26.30;;;15.80;;
45764;SDS011;31474;45.332;10.230;2023-04-08T11:00:17;27.15;;;15.63;;
45764;SDS011;31474;45.332;10.230;2023-04-08T11:02:43;26.08;;;15.43;;
45764;SDS011;31474;45.332;10.230;2023-04-08T11:05:09;25.20;;;16.10;;
45764;SDS011;31474;45.332;10.230;2023-04-08T11:07:41;27.17;;;16.58;;
45764;SDS011;31474;45.332;10.230;2023-04-08T11:10:09;27.83;;;16.55;;
45764;SDS011;31474;45.332;10.230;2023-04-08T11:12:35;30.17;;;15.85;;
45764;SDS011;31474;45.332;10.230;2023-04-08T11:15:02;25.52;;;15.63;;
45764;SDS011;31474;45.332;10.230;2023-04-08T11:17:29;27.90;;;16.02;;
45764;SDS011;31474;45.332;10.230;2023-04-08T11:19:55;26.00;;;16.40;;
45764;SDS011;31474;45.332;10.230;2023-04-08T11:22:26;23.00;;;14.73;;
45764;SDS011;31474;45.332;10.230;2023-04-08T11:24:53;22.80;;;14.18;;
45764;SDS011;31474;45.332;10.230;2023-04-08T11:27:20;24.27;;;14.98;;
45764;SDS011;31474;45.332;10.230;2023-04-08T11:29:49;24.17;;;15.65;;
45764;SDS011;31474;45.332;10.230;2023-04-08T11:32:21;24.45;;;15.23;;
45764;SDS011;31474;45.332;10.230;2023-04-08T11:34:48;44.83;;;18.52;;
45764;SDS011;31474;45.332;10.230;2023-04-08T11:37:14;32.35;;;17.00;;
45764;SDS011;31474;45.332;10.230;2023-04-08T11:39:43;24.30;;;16.30;;
45764;SDS011;31474;45.332;10.230;2023-04-08T11:42:24;23.08;;;14.38;;
45764;SDS011;31474;45.332;10.230;2023-04-08T11:44:53;28.63;;;14.82;;
45764;SDS011;31474;45.332;10.230;2023-04-08T11:47:19;22.98;;;15.50;;
45764;SDS011;31474;45.332;10.230;2023-04-08T11:49:45;24.42;;;15.00;;
45764;SDS011;31474;45.332;10.230;2023-04-08T11:52:12;31.83;;;16.50;;
45764;SDS011;31474;45.332;10.230;2023-04-08T11:54:41;25.83;;;15.27;;
45764;SDS011;31474;45.332;10.230;2023-04-08T11:57:07;28.55;;;15.40;;
45764;SDS011;31474;45.332;10.230;2023-04-08T11:59:36;23.10;;;14.77;;
45764;SDS011;31474;45.332;10.230;2023-04-08T12:02:02;23.08;;;16.20;;
45764;SDS011;31474;45.332;10.230;2023-04-08T12:04:28;24.02;;;14.52;;
45764;SDS011;31474;45.332;10.230;2023-04-08T12:06:54;23.25;;;14.60;;
45764;SDS011;31474;45.332;10.230;2023-04-08T12:09:20;27.92;;;17.52;;
45764;SDS011;31474;45.332;10.230;2023-04-08T12:11:46;26.92;;;16.38;;
45764;SDS011;31474;45.332;10.230;2023-04-08T12:14:12;25.23;;;16.15;;
45764;SDS011;31474;45.332;10.230;2023-04-08T12:16:38;24.65;;;16.42;;
45764;SDS011;31474;45.332;10.230;2023-04-08T12:19:04;23.75;;;15.85;;
45764;SDS011;31474;45.332;10.230;2023-04-08T12:21:29;26.80;;;15.90;;
45764;SDS011;31474;45.332;10.230;2023-04-08T12:23:56;24.88;;;16.00;;
45764;SDS011;31474;45.332;10.230;2023-04-08T12:26:22;29.23;;;17.00;;
45764;SDS011;31474;45.332;10.230;2023-04-08T12:28:48;20.95;;;13.85;;
45764;SDS011;31474;45.332;10.230;2023-04-08T12:31:14;23.15;;;15.85;;
45764;SDS011;31474;45.332;10.230;2023-04-08T12:33:40;26.05;;;15.23;;
45764;SDS011;31474;45.332;10.230;2023-04-08T12:36:05;25.13;;;15.35;;
45764;SDS011;31474;45.332;10.230;2023-04-08T12:38:31;24.25;;;15.38;;
45764;SDS011;31474;45.332;10.230;2023-04-08T12:40:57;27.25;;;14.65;;
45764;SDS011;31474;45.332;10.230;2023-04-08T12:43:23;20.52;;;13.50;;
45764;SDS011;31474;45.332;10.230;2023-04-08T12:45:49;20.48;;;13.35;;
45764;SDS011;31474;45.332;10.230;2023-04-08T12:48:15;27.83;;;16.00;;
45764;SDS011;31474;45.332;10.230;2023-04-08T12:50:41;22.35;;;14.45;;
45764;SDS011;31474;45.332;10.230;2023-04-08T12:53:07;22.63;;;14.95;;
45764;SDS011;31474;45.332;10.230;2023-04-08T12:55:32;23.75;;;15.98;;
45764;SDS011;31474;45.332;10.230;2023-04-08T12:57:58;27.42;;;14.65;;
45764;SDS011;31474;45.332;10.230;2023-04-08T13:00:24;23.40;;;14.15;;
45764;SDS011;31474;45.332;10.230;2023-04-08T13:02:50;22.95;;;14.73;;
45764;SDS011;31474;45.332;10.230;2023-04-08T13:05:16;24.33;;;14.27;;
45764;SDS011;31474;45.332;10.230;2023-04-08T13:07:42;22.88;;;13.90;;
45764;SDS011;31474;45.332;10.230;2023-04-08T13:10:07;28.70;;;14.90;;
45764;SDS011;31474;45.332;10.230;2023-04-08T13:12:33;22.73;;;15.25;;
45764;SDS011;31474;45.332;10.230;2023-04-08T13:14:59;21.38;;;15.35;;
45764;SDS011;31474;45.332;10.230;2023-04-08T13:17:25;24.52;;;14.55;;
45764;SDS011;31474;45.332;10.230;2023-04-08T13:19:51;19.05;;;12.73;;
45764;SDS011;31474;45.332;10.230;2023-04-08T13:22:17;20.85;;;14.18;;
45764;SDS011;31474;45.332;10.230;2023-04-08T13:24:43;25.20;;;13.45;;
45764;SDS011;31474;45.332;10.230;2023-04-08T13:27:08;20.67;;;14.45;;
45764;SDS011;31474;45.332;10.230;2023-04-08T13:29:34;20.73;;;15.00;;
45764;SDS011;31474;45.332;10.230;2023-04-08T13:32:00;21.33;;;13.68;;
45764;SDS011;31474;45.332;10.230;2023-04-08T13:34:26;22.33;;;13.82;;
45764;SDS011;31474;45.332;10.230;2023-04-08T13:36:51;21.95;;;13.38;;
45764;SDS011;31474;45.332;10.230;2023-04-08T13:39:17;23.00;;;13.63;;
45764;SDS011;31474;45.332;10.230;2023-04-08T13:41:43;20.55;;;12.77;;
45764;SDS011;31474;45.332;10.230;2023-04-08T13:44:08;19.20;;;13.65;;
45764;SDS011;31474;45.332;10.230;2023-04-08T13:46:34;19.77;;;13.02;;
45764;SDS011;31474;45.332;10.230;2023-04-08T13:49:00;19.35;;;12.98;;
45764;SDS011;31474;45.332;10.230;2023-04-08T13:51:27;20.35;;;12.85;;
45764;SDS011;31474;45.332;10.230;2023-04-08T13:53:53;19.67;;;13.48;;
45764;SDS011;31474;45.332;10.230;2023-04-08T13:56:18;20.42;;;13.80;;
45764;SDS011;31474;45.332;10.230;2023-04-08T13:58:45;17.45;;;12.07;;
45764;SDS011;31474;45.332;10.230;2023-04-08T14:01:11;21.90;;;14.98;;
45764;SDS011;31474;45.332;10.230;2023-04-08T14:03:37;19.52;;;13.40;;
45764;SDS011;31474;45.332;10.230;2023-04-08T14:06:02;17.95;;;13.10;;
45764;SDS011;31474;45.332;10.230;2023-04-08T14:08:28;18.77;;;12.70;;
45764;SDS011;31474;45.332;10.230;2023-04-08T14:10:54;18.42;;;12.98;;
45764;SDS011;31474;45.332;10.230;2023-04-08T14:13:21;16.23;;;11.35;;
45764;SDS011;31474;45.332;10.230;2023-04-08T14:15:47;19.13;;;12.52;;
45764;SDS011;31474;45.332;10.230;2023-04-08T14:18:13;17.95;;;12.10;;
45764;SDS011;31474;45.332;10.230;2023-04-08T14:20:41;16.70;;;11.57;;
45764;SDS011;31474;45.332;10.230;2023-04-08T14:23:07;20.13;;;12.55;;
45764;SDS011;31474;45.332;10.230;2023-04-08T14:25:33;18.02;;;12.50;;